Anton, CO

11:12 AM MST on February 01, 2015 (GMT -0700)
Cope, Colorado | Change Station
CLOSE
Current Station
Personal Weather Station
Location: Cope, CO
Elevation: 4423 ft
Nearby Weather Stations

Elev 4423 ft 39.67 °N, 102.85 °W | Updated 2 minutes ago

Overcast
Overcast
21.2 °F
Feels Like 14 °F
N
5.3
Wind Variable Wind from NE

Today
High -- | Low -- °F
--% Chance of Precip.
Yesterday
High -- | Low -- °F
Precip. -- in
7:01 AM 5:12 PM
Waxing Gibbous, 95% visible
Pressure 30.35 in
Visibility 7.0 miles
Clouds Mostly Cloudy 1300 ft
Overcast 2100 ft
Windchill 14 °F
Dew Point 17 °F
Humidity 83%
Rainfall 0.00 in
Snow Depth Not available.
UV 1 out of 12
Pollen .70 out of 12
Air Quality Not available.
Flu Activity Not available.
METAR KAKO 011753Z AUTO 36009KT 7SM BKN013 OVC021 M08/M11 A3019 RMK AO2 SLP277 T10831106 11067 21083 51020

More Conditions Fewer Conditions

Pressure 30.35 in
Visibility 7.0 miles
Clouds Mostly Cloudy 1300 ft
Overcast 2100 ft
Windchill 14 °F
Dew Point 17 °F
Humidity 83%
Rainfall 0.00 in
Snow Depth Not available.
UV 1 out of 12
Pollen .70 out of 12
Air Quality Not available.
Flu Activity Not available.
METAR KAKO 011753Z AUTO 36009KT 7SM BKN013 OVC021 M08/M11 A3019 RMK AO2 SLP277 T10831106 11067 21083 51020

More Conditions Fewer Conditions

10-Day Weather Forecast

Almanac

Astronomy

Feb. 01, 2015 Rise Set
Actual Time
Civil Twilight
Nautical Twilight
Astronomical Twilight
Moon
Length of Visible Light
Length of Day
Tomorrow will be .
, % of the Moon is Illuminated

Today's Extremes

State Highs State Lows

Community

WunderPhotos

Upload Photos

1,792,420 photos uploaded!

WunderBlogs® & News

Nearby

Air Quality

  Air Quality AQ Index Pollutant
Not available.

Snow Depth

Station Depth Elevation

Earthquake Activity

City Distance Mag. Time & Date
Minimum magnitude displayed is 2.5.

Coastal Water Temperatures

Place Temperature

Nearby Weather Stations